PAS603 WALL-WIII
Flight info
| Callsign | PAS603 |
|---|---|
| Flight time | 1h 50m |
| Altitude | 36000 |
| Route | AJAMA T14 AKSOX |
| Aircraft | A320/M-SDE3FGHIRWY/LB1 |
Departure
| Time | 2026-04-22 13:40 |
|---|---|
| Airport | Sultan Aji Muhammad Sulaiman Sepinggan International Airport (WALL) |
Arrival
| Time | 2026-04-22 15:30 |
|---|---|
| Airport | Soekarno-Hatta International Airport (WIII) |
| Time | Latitude | Longitude | Altitude | Speed | Heading |
|---|---|---|---|---|---|
| 2026-04-22 13:25 | -1.26313 | 116.89853 | 21 ft | 0 kts | 337° |
| 2026-04-22 13:28 | -1.26313 | 116.89854 | 21 ft | 1 kts | 337° |
| 2026-04-22 13:28 | -1.26326 | 116.89858 | 21 ft | 2 kts | 337° |
| 2026-04-22 13:28 | -1.26339 | 116.89864 | 21 ft | 2 kts | 337° |
| 2026-04-22 13:28 | -1.26352 | 116.89870 | 21 ft | 2 kts | 337° |
| 2026-04-22 13:29 | -1.26361 | 116.89873 | 21 ft | 1 kts | 338° |
| 2026-04-22 13:29 | -1.26372 | 116.89882 | 21 ft | 2 kts | 293° |
| 2026-04-22 13:29 | -1.26374 | 116.89896 | 21 ft | 1 kts | 255° |
| 2026-04-22 13:29 | -1.26371 | 116.89902 | 21 ft | 0 kts | 242° |
| 2026-04-22 13:30 | -1.26370 | 116.89905 | 21 ft | 0 kts | 246° |
| 2026-04-22 13:32 | -1.26372 | 116.89901 | 21 ft | 1 kts | 248° |
| 2026-04-22 13:33 | -1.26377 | 116.89888 | 21 ft | 1 kts | 247° |
| 2026-04-22 13:33 | -1.26385 | 116.89867 | 21 ft | 4 kts | 248° |
| 2026-04-22 13:33 | -1.26402 | 116.89828 | 21 ft | 7 kts | 247° |
| 2026-04-22 13:33 | -1.26435 | 116.89778 | 21 ft | 9 kts | 204° |
| 2026-04-22 13:34 | -1.26501 | 116.89768 | 21 ft | 10 kts | 207° |
| 2026-04-22 13:34 | -1.26541 | 116.89706 | 21 ft | 11 kts | 246° |
| 2026-04-22 13:34 | -1.26573 | 116.89632 | 21 ft | 12 kts | 247° |
| 2026-04-22 13:34 | -1.26608 | 116.89550 | 21 ft | 13 kts | 247° |
| 2026-04-22 13:35 | -1.26644 | 116.89465 | 21 ft | 13 kts | 246° |
| 2026-04-22 13:35 | -1.26683 | 116.89374 | 21 ft | 14 kts | 247° |
| 2026-04-22 13:35 | -1.26723 | 116.89279 | 21 ft | 15 kts | 247° |
| 2026-04-22 13:35 | -1.26764 | 116.89182 | 21 ft | 15 kts | 247° |
| 2026-04-22 13:36 | -1.26807 | 116.89080 | 21 ft | 16 kts | 247° |
| 2026-04-22 13:36 | -1.26850 | 116.88978 | 21 ft | 16 kts | 248° |
| 2026-04-22 13:36 | -1.26896 | 116.88872 | 21 ft | 16 kts | 247° |
| 2026-04-22 13:36 | -1.26942 | 116.88763 | 21 ft | 17 kts | 247° |
| 2026-04-22 13:37 | -1.26988 | 116.88654 | 21 ft | 17 kts | 247° |
| 2026-04-22 13:37 | -1.27035 | 116.88542 | 21 ft | 17 kts | 247° |
| 2026-04-22 13:37 | -1.27078 | 116.88442 | 21 ft | 14 kts | 247° |
| 2026-04-22 13:37 | -1.27134 | 116.88373 | 21 ft | 11 kts | 206° |
| 2026-04-22 13:38 | -1.27198 | 116.88371 | 21 ft | 9 kts | 154° |
| 2026-04-22 13:38 | -1.27259 | 116.88442 | 21 ft | 4 kts | 97° |
| 2026-04-22 13:38 | -1.27253 | 116.88463 | 21 ft | 0 kts | 66° |
| 2026-04-22 13:39 | -1.27248 | 116.88476 | 21 ft | 13 kts | 66° |
| 2026-04-22 13:39 | -1.27110 | 116.88799 | 21 ft | 84 kts | 67° |
| 2026-04-22 13:39 | -1.26801 | 116.89525 | 21 ft | 142 kts | 67° |
| 2026-04-22 13:39 | -1.26372 | 116.90553 | 248 ft | 167 kts | 67° |
| 2026-04-22 13:40 | -1.25920 | 116.91631 | 760 ft | 171 kts | 66° |
| 2026-04-22 13:40 | -1.25451 | 116.92729 | 1343 ft | 172 kts | 66° |
| 2026-04-22 13:40 | -1.24988 | 116.93818 | 1903 ft | 173 kts | 66° |
| 2026-04-22 13:40 | -1.24517 | 116.94923 | 2446 ft | 175 kts | 66° |
| 2026-04-22 13:41 | -1.24038 | 116.96046 | 2975 ft | 176 kts | 67° |
| 2026-04-22 13:41 | -1.23775 | 116.97241 | 3396 ft | 184 kts | 95° |
| 2026-04-22 13:41 | -1.24257 | 116.98454 | 3691 ft | 200 kts | 130° |
| 2026-04-22 13:41 | -1.25455 | 116.99249 | 4002 ft | 216 kts | 157° |
| 2026-04-22 13:42 | -1.26915 | 116.99828 | 4231 ft | 237 kts | 158° |
| 2026-04-22 13:42 | -1.28499 | 117.00462 | 4464 ft | 254 kts | 157° |
| 2026-04-22 13:42 | -1.30148 | 117.01135 | 4522 ft | 255 kts | 156° |
| 2026-04-22 13:42 | -1.31803 | 117.01823 | 4555 ft | 255 kts | 156° |
| 2026-04-22 13:43 | -1.33453 | 117.02514 | 4589 ft | 255 kts | 156° |
| 2026-04-22 13:43 | -1.35087 | 117.03202 | 4634 ft | 255 kts | 156° |
| 2026-04-22 13:43 | -1.36745 | 117.03901 | 4683 ft | 255 kts | 156° |
| 2026-04-22 13:43 | -1.38384 | 117.04592 | 4731 ft | 255 kts | 156° |
| 2026-04-22 13:44 | -1.40018 | 117.05283 | 4779 ft | 255 kts | 156° |
| 2026-04-22 13:44 | -1.41678 | 117.05984 | 4826 ft | 255 kts | 156° |
| 2026-04-22 13:44 | -1.43345 | 117.06629 | 4868 ft | 256 kts | 167° |
| 2026-04-22 13:44 | -1.45124 | 117.06588 | 4908 ft | 257 kts | 198° |
| 2026-04-22 13:45 | -1.46662 | 117.05660 | 4990 ft | 270 kts | 228° |
| 2026-04-22 13:45 | -1.47637 | 117.04024 | 5302 ft | 280 kts | 249° |
| 2026-04-22 13:45 | -1.48360 | 117.02209 | 5611 ft | 282 kts | 249° |
| 2026-04-22 13:45 | -1.49093 | 117.00391 | 5940 ft | 284 kts | 248° |
| 2026-04-22 13:46 | -1.49852 | 116.98547 | 6275 ft | 286 kts | 248° |
| 2026-04-22 13:46 | -1.50622 | 116.96708 | 6608 ft | 287 kts | 248° |
| 2026-04-22 13:46 | -1.51395 | 116.94876 | 6938 ft | 289 kts | 248° |
| 2026-04-22 13:46 | -1.52187 | 116.93006 | 7273 ft | 291 kts | 248° |
| 2026-04-22 13:47 | -1.52968 | 116.91162 | 7600 ft | 292 kts | 248° |
| 2026-04-22 13:47 | -1.53729 | 116.89270 | 8006 ft | 293 kts | 255° |
| 2026-04-22 13:47 | -1.53973 | 116.87253 | 8439 ft | 291 kts | 275° |
| 2026-04-22 13:47 | -1.53603 | 116.85279 | 8886 ft | 290 kts | 285° |
| 2026-04-22 13:48 | -1.53082 | 116.83348 | 9335 ft | 289 kts | 285° |
| 2026-04-22 13:48 | -1.52554 | 116.81418 | 9700 ft | 289 kts | 285° |
| 2026-04-22 13:48 | -1.52035 | 116.79472 | 10049 ft | 290 kts | 285° |
| 2026-04-22 13:48 | -1.51519 | 116.77502 | 10404 ft | 301 kts | 284° |
| 2026-04-22 13:49 | -1.50982 | 116.75423 | 10757 ft | 311 kts | 284° |
| 2026-04-22 13:49 | -1.50445 | 116.73335 | 11005 ft | 315 kts | 285° |
| 2026-04-22 13:49 | -1.49894 | 116.71186 | 11242 ft | 320 kts | 285° |
| 2026-04-22 13:49 | -1.49345 | 116.69048 | 11425 ft | 324 kts | 286° |
| 2026-04-22 13:50 | -1.48769 | 116.66861 | 11615 ft | 327 kts | 286° |
| 2026-04-22 13:50 | -1.48176 | 116.64630 | 11890 ft | 331 kts | 286° |
| 2026-04-22 13:50 | -1.47591 | 116.62435 | 12173 ft | 332 kts | 287° |
| 2026-04-22 13:50 | -1.46991 | 116.60186 | 12467 ft | 333 kts | 286° |
| 2026-04-22 13:51 | -1.46396 | 116.57952 | 12759 ft | 334 kts | 286° |
| 2026-04-22 13:51 | -1.45803 | 116.55714 | 13041 ft | 336 kts | 286° |
| 2026-04-22 13:51 | -1.45224 | 116.53433 | 13325 ft | 338 kts | 282° |
| 2026-04-22 13:51 | -1.45133 | 116.51094 | 13595 ft | 342 kts | 264° |
| 2026-04-22 13:52 | -1.45723 | 116.48798 | 13929 ft | 348 kts | 250° |
| 2026-04-22 13:52 | -1.46606 | 116.46524 | 14496 ft | 350 kts | 249° |
| 2026-04-22 13:52 | -1.47502 | 116.44286 | 15010 ft | 352 kts | 249° |
| 2026-04-22 13:52 | -1.48411 | 116.41993 | 15484 ft | 355 kts | 249° |
| 2026-04-22 13:53 | -1.49314 | 116.39684 | 15947 ft | 357 kts | 249° |
| 2026-04-22 13:53 | -1.50216 | 116.37360 | 16407 ft | 361 kts | 249° |
| 2026-04-22 13:53 | -1.51116 | 116.35033 | 16866 ft | 363 kts | 249° |
| 2026-04-22 13:53 | -1.52023 | 116.32675 | 17323 ft | 365 kts | 249° |
| 2026-04-22 13:54 | -1.52934 | 116.30306 | 17787 ft | 367 kts | 249° |
| 2026-04-22 13:54 | -1.53848 | 116.27930 | 18251 ft | 367 kts | 249° |
| 2026-04-22 13:54 | -1.54767 | 116.25538 | 18720 ft | 365 kts | 249° |
| 2026-04-22 13:54 | -1.55678 | 116.23169 | 19180 ft | 366 kts | 249° |
| 2026-04-22 13:55 | -1.56582 | 116.20827 | 19639 ft | 367 kts | 249° |
| 2026-04-22 13:55 | -1.57504 | 116.18442 | 20067 ft | 368 kts | 249° |
| 2026-04-22 13:55 | -1.58426 | 116.16058 | 20478 ft | 370 kts | 249° |
| 2026-04-22 13:55 | -1.59361 | 116.13641 | 20897 ft | 371 kts | 248° |
| 2026-04-22 13:56 | -1.60281 | 116.11257 | 21306 ft | 372 kts | 248° |
| 2026-04-22 13:56 | -1.61212 | 116.08844 | 21718 ft | 373 kts | 248° |
| 2026-04-22 13:56 | -1.62151 | 116.06411 | 22135 ft | 374 kts | 248° |
| 2026-04-22 13:56 | -1.63083 | 116.03992 | 22560 ft | 375 kts | 248° |
| 2026-04-22 13:57 | -1.64017 | 116.01575 | 22986 ft | 375 kts | 248° |
| 2026-04-22 13:57 | -1.64953 | 115.99149 | 23411 ft | 375 kts | 248° |
| 2026-04-22 13:57 | -1.65900 | 115.96699 | 23833 ft | 376 kts | 248° |
| 2026-04-22 13:57 | -1.66849 | 115.94243 | 24017 ft | 384 kts | 248° |
| 2026-04-22 13:58 | -1.67815 | 115.91741 | 24180 ft | 392 kts | 248° |
| 2026-04-22 13:58 | -1.68805 | 115.89178 | 24332 ft | 400 kts | 248° |
| 2026-04-22 13:58 | -1.69818 | 115.86551 | 24482 ft | 408 kts | 249° |
| 2026-04-22 13:58 | -1.70854 | 115.83867 | 24683 ft | 414 kts | 249° |
| 2026-04-22 13:59 | -1.71885 | 115.81192 | 24984 ft | 416 kts | 249° |
| 2026-04-22 13:59 | -1.72928 | 115.78485 | 25339 ft | 417 kts | 249° |
| 2026-04-22 13:59 | -1.73977 | 115.75764 | 25674 ft | 418 kts | 249° |
| 2026-04-22 13:59 | -1.75022 | 115.73051 | 25971 ft | 420 kts | 249° |
| 2026-04-22 14:00 | -1.76072 | 115.70324 | 26266 ft | 423 kts | 249° |
| 2026-04-22 14:00 | -1.77126 | 115.67587 | 26567 ft | 425 kts | 249° |
| 2026-04-22 14:00 | -1.78193 | 115.64814 | 26880 ft | 426 kts | 249° |
| 2026-04-22 14:00 | -1.79253 | 115.62064 | 27188 ft | 427 kts | 249° |
| 2026-04-22 14:01 | -1.80323 | 115.59286 | 27487 ft | 429 kts | 249° |
| 2026-04-22 14:01 | -1.81387 | 115.56519 | 27768 ft | 431 kts | 249° |
| 2026-04-22 14:01 | -1.82467 | 115.53718 | 28052 ft | 433 kts | 249° |
| 2026-04-22 14:01 | -1.83547 | 115.50913 | 28336 ft | 434 kts | 249° |
| 2026-04-22 14:02 | -1.84632 | 115.48095 | 28620 ft | 435 kts | 249° |
| 2026-04-22 14:02 | -1.85734 | 115.45292 | 28901 ft | 437 kts | 246° |
| 2026-04-22 14:02 | -1.87038 | 115.42546 | 29169 ft | 438 kts | 241° |
| 2026-04-22 14:02 | -1.88575 | 115.39928 | 29434 ft | 439 kts | 236° |
| 2026-04-22 14:03 | -1.90366 | 115.37417 | 29687 ft | 441 kts | 231° |
| 2026-04-22 14:03 | -1.92276 | 115.35008 | 29952 ft | 442 kts | 231° |
| 2026-04-22 14:03 | -1.94219 | 115.32599 | 30211 ft | 443 kts | 230° |
| 2026-04-22 14:03 | -1.96145 | 115.30215 | 30462 ft | 443 kts | 231° |
| 2026-04-22 14:04 | -1.98080 | 115.27812 | 30704 ft | 445 kts | 231° |
| 2026-04-22 14:04 | -2.00017 | 115.25401 | 30945 ft | 446 kts | 231° |
| 2026-04-22 14:04 | -2.01960 | 115.22977 | 31182 ft | 447 kts | 231° |
| 2026-04-22 14:04 | -2.03913 | 115.20538 | 31410 ft | 449 kts | 231° |
| 2026-04-22 14:05 | -2.05863 | 115.18098 | 31635 ft | 450 kts | 231° |
| 2026-04-22 14:05 | -2.07808 | 115.15668 | 31843 ft | 452 kts | 231° |
| 2026-04-22 14:05 | -2.11752 | 115.10736 | 32280 ft | 455 kts | 231° |
| 2026-04-22 14:06 | -2.13741 | 115.08247 | 32484 ft | 456 kts | 231° |
| 2026-04-22 14:06 | -2.15718 | 115.05775 | 32719 ft | 457 kts | 231° |
| 2026-04-22 14:06 | -2.17708 | 115.03284 | 32955 ft | 458 kts | 231° |
| 2026-04-22 14:06 | -2.19701 | 115.00790 | 33176 ft | 460 kts | 231° |
| 2026-04-22 14:07 | -2.21701 | 114.98286 | 33399 ft | 461 kts | 231° |
| 2026-04-22 14:07 | -2.23702 | 114.95782 | 33675 ft | 461 kts | 231° |
| 2026-04-22 14:07 | -2.25700 | 114.93279 | 34012 ft | 460 kts | 231° |
| 2026-04-22 14:07 | -2.27671 | 114.90812 | 34357 ft | 458 kts | 231° |
| 2026-04-22 14:08 | -2.29671 | 114.88309 | 34621 ft | 456 kts | 231° |
| 2026-04-22 14:08 | -2.31645 | 114.85838 | 34795 ft | 458 kts | 231° |
| 2026-04-22 14:08 | -2.33649 | 114.83333 | 34989 ft | 459 kts | 231° |
| 2026-04-22 14:08 | -2.35623 | 114.80861 | 35197 ft | 459 kts | 231° |
| 2026-04-22 14:09 | -2.37627 | 114.78353 | 35387 ft | 460 kts | 231° |
| 2026-04-22 14:09 | -2.39630 | 114.75845 | 35560 ft | 461 kts | 231° |
| 2026-04-22 14:09 | -2.41612 | 114.73364 | 35709 ft | 462 kts | 231° |
| 2026-04-22 14:09 | -2.43607 | 114.70866 | 35845 ft | 463 kts | 231° |
| 2026-04-22 14:10 | -2.45617 | 114.68350 | 35856 ft | 463 kts | 231° |
| 2026-04-22 14:10 | -2.49657 | 114.63290 | 35861 ft | 464 kts | 231° |
| 2026-04-22 14:11 | -2.53683 | 114.58249 | 35859 ft | 463 kts | 231° |
| 2026-04-22 14:11 | -2.57691 | 114.53228 | 35856 ft | 463 kts | 231° |
| 2026-04-22 14:12 | -2.61712 | 114.48191 | 35857 ft | 463 kts | 231° |
| 2026-04-22 14:12 | -2.65707 | 114.43186 | 35857 ft | 463 kts | 231° |
| 2026-04-22 14:13 | -2.69722 | 114.38156 | 35853 ft | 463 kts | 231° |
| 2026-04-22 14:13 | -2.73740 | 114.33121 | 35850 ft | 463 kts | 231° |
| 2026-04-22 14:14 | -2.77764 | 114.28078 | 35851 ft | 464 kts | 231° |
| 2026-04-22 14:14 | -2.81801 | 114.23018 | 35852 ft | 464 kts | 231° |
| 2026-04-22 14:15 | -2.85804 | 114.17999 | 35850 ft | 463 kts | 231° |
| 2026-04-22 14:15 | -2.89809 | 114.12974 | 35850 ft | 463 kts | 231° |
| 2026-04-22 14:16 | -2.93835 | 114.07928 | 35853 ft | 464 kts | 231° |
| 2026-04-22 14:16 | -2.97870 | 114.02869 | 35852 ft | 464 kts | 231° |
| 2026-04-22 14:17 | -3.01884 | 113.97836 | 35851 ft | 464 kts | 231° |
| 2026-04-22 14:17 | -3.05916 | 113.92776 | 35850 ft | 465 kts | 231° |
| 2026-04-22 14:18 | -3.09945 | 113.87722 | 35850 ft | 465 kts | 231° |
| 2026-04-22 14:18 | -3.13954 | 113.82693 | 35849 ft | 465 kts | 231° |
| 2026-04-22 14:19 | -3.17999 | 113.77616 | 35849 ft | 465 kts | 231° |
| 2026-04-22 14:19 | -3.22030 | 113.72559 | 35854 ft | 466 kts | 231° |
| 2026-04-22 14:20 | -3.28083 | 113.64963 | 35867 ft | 466 kts | 231° |
| 2026-04-22 14:20 | -3.32133 | 113.59877 | 35869 ft | 467 kts | 231° |
| 2026-04-22 14:21 | -3.38190 | 113.52271 | 35868 ft | 467 kts | 231° |
| 2026-04-22 14:22 | -3.44287 | 113.44611 | 35870 ft | 468 kts | 231° |
| 2026-04-22 14:23 | -3.50363 | 113.36979 | 35873 ft | 468 kts | 231° |
| 2026-04-22 14:23 | -3.54414 | 113.31889 | 35870 ft | 468 kts | 231° |
| 2026-04-22 14:24 | -3.58470 | 113.26791 | 35869 ft | 469 kts | 231° |
| 2026-04-22 14:24 | -3.62523 | 113.21699 | 35870 ft | 468 kts | 231° |
| 2026-04-22 14:25 | -3.66578 | 113.16599 | 35868 ft | 468 kts | 231° |
| 2026-04-22 14:25 | -3.70641 | 113.11486 | 35866 ft | 469 kts | 231° |
| 2026-04-22 14:26 | -3.74721 | 113.06356 | 35860 ft | 469 kts | 231° |
| 2026-04-22 14:26 | -3.78772 | 113.01260 | 35855 ft | 470 kts | 231° |
| 2026-04-22 14:27 | -3.82837 | 112.96144 | 35851 ft | 469 kts | 231° |
| 2026-04-22 14:27 | -3.86912 | 112.91017 | 35847 ft | 469 kts | 231° |
| 2026-04-22 14:28 | -3.90950 | 112.85935 | 35847 ft | 469 kts | 231° |
| 2026-04-22 14:28 | -3.95022 | 112.80810 | 35844 ft | 469 kts | 231° |
| 2026-04-22 14:29 | -3.99088 | 112.75691 | 35848 ft | 469 kts | 232° |
| 2026-04-22 14:29 | -4.03137 | 112.70590 | 35845 ft | 468 kts | 231° |
| 2026-04-22 14:30 | -4.07189 | 112.65482 | 35844 ft | 468 kts | 231° |
| 2026-04-22 14:30 | -4.11233 | 112.60387 | 35844 ft | 468 kts | 231° |
| 2026-04-22 14:31 | -4.15042 | 112.55115 | 35844 ft | 468 kts | 237° |
| 2026-04-22 14:31 | -4.18248 | 112.49427 | 35844 ft | 468 kts | 244° |
| 2026-04-22 14:32 | -4.20768 | 112.43454 | 35845 ft | 468 kts | 251° |
| 2026-04-22 14:32 | -4.22866 | 112.37299 | 35845 ft | 468 kts | 252° |
| 2026-04-22 14:33 | -4.24951 | 112.31128 | 35845 ft | 468 kts | 251° |
| 2026-04-22 14:33 | -4.27041 | 112.24974 | 35846 ft | 467 kts | 251° |
| 2026-04-22 14:34 | -4.29136 | 112.18823 | 35845 ft | 468 kts | 251° |
| 2026-04-22 14:34 | -4.31230 | 112.12675 | 35851 ft | 467 kts | 251° |
| 2026-04-22 14:35 | -4.33335 | 112.06494 | 35862 ft | 467 kts | 251° |
| 2026-04-22 14:35 | -4.35425 | 112.00360 | 35866 ft | 467 kts | 251° |
| 2026-04-22 14:36 | -4.37515 | 111.94224 | 35868 ft | 467 kts | 251° |
| 2026-04-22 14:36 | -4.39616 | 111.88054 | 35868 ft | 467 kts | 251° |
| 2026-04-22 14:37 | -4.41703 | 111.81924 | 35868 ft | 467 kts | 251° |
| 2026-04-22 14:37 | -4.43793 | 111.75781 | 35868 ft | 468 kts | 251° |
| 2026-04-22 14:38 | -4.45894 | 111.69609 | 35868 ft | 467 kts | 251° |
| 2026-04-22 14:38 | -4.47977 | 111.63487 | 35868 ft | 467 kts | 251° |
| 2026-04-22 14:39 | -4.50075 | 111.57317 | 35869 ft | 467 kts | 251° |
| 2026-04-22 14:39 | -4.52156 | 111.51193 | 35869 ft | 467 kts | 251° |
| 2026-04-22 14:40 | -4.55297 | 111.41946 | 35868 ft | 468 kts | 251° |
| 2026-04-22 14:40 | -4.57388 | 111.35786 | 35865 ft | 467 kts | 251° |
| 2026-04-22 14:41 | -4.59475 | 111.29637 | 35863 ft | 467 kts | 251° |
| 2026-04-22 14:41 | -4.61573 | 111.23457 | 35861 ft | 467 kts | 251° |
| 2026-04-22 14:42 | -4.63583 | 111.17314 | 35861 ft | 466 kts | 252° |
| 2026-04-22 14:42 | -4.65564 | 111.11131 | 35862 ft | 466 kts | 252° |
| 2026-04-22 14:43 | -4.67559 | 111.04919 | 35863 ft | 467 kts | 252° |
| 2026-04-22 14:43 | -4.69536 | 110.98773 | 35862 ft | 467 kts | 252° |
| 2026-04-22 14:44 | -4.71527 | 110.92589 | 35860 ft | 467 kts | 252° |
| 2026-04-22 14:44 | -4.73528 | 110.86372 | 35855 ft | 466 kts | 252° |
| 2026-04-22 14:45 | -4.75510 | 110.80211 | 35849 ft | 466 kts | 252° |
| 2026-04-22 14:45 | -4.77491 | 110.74052 | 35847 ft | 466 kts | 252° |
| 2026-04-22 14:46 | -4.79483 | 110.67855 | 35847 ft | 467 kts | 252° |
| 2026-04-22 14:46 | -4.81468 | 110.61676 | 35847 ft | 467 kts | 252° |
| 2026-04-22 14:47 | -4.83456 | 110.55490 | 35847 ft | 467 kts | 252° |
| 2026-04-22 14:47 | -4.85446 | 110.49296 | 35848 ft | 467 kts | 252° |
| 2026-04-22 14:48 | -4.87429 | 110.43124 | 35847 ft | 466 kts | 252° |
| 2026-04-22 14:48 | -4.89351 | 110.36951 | 35847 ft | 467 kts | 252° |
| 2026-04-22 14:49 | -4.91251 | 110.30724 | 35848 ft | 467 kts | 253° |
| 2026-04-22 14:49 | -4.93153 | 110.24503 | 35857 ft | 467 kts | 252° |
| 2026-04-22 14:50 | -4.94296 | 110.20769 | 35863 ft | 467 kts | 252° |
| 2026-04-22 14:51 | -4.96299 | 110.14225 | 35867 ft | 467 kts | 252° |
| 2026-04-22 14:51 | -4.98190 | 110.08051 | 35868 ft | 467 kts | 253° |
| 2026-04-22 14:52 | -5.00096 | 110.01822 | 35868 ft | 467 kts | 252° |
| 2026-04-22 14:52 | -5.01993 | 109.95615 | 35869 ft | 468 kts | 252° |
| 2026-04-22 14:53 | -5.03895 | 109.89395 | 35868 ft | 467 kts | 252° |
| 2026-04-22 14:53 | -5.05795 | 109.83178 | 35870 ft | 467 kts | 252° |
| 2026-04-22 14:54 | -5.06417 | 109.81143 | 35867 ft | 467 kts | 252° |
| 2026-04-22 14:54 | -5.08315 | 109.74934 | 35870 ft | 466 kts | 252° |
| 2026-04-22 14:55 | -5.10210 | 109.68739 | 35868 ft | 466 kts | 253° |
| 2026-04-22 14:55 | -5.12116 | 109.62495 | 35860 ft | 466 kts | 252° |
| 2026-04-22 14:56 | -5.14002 | 109.56314 | 35852 ft | 467 kts | 252° |
| 2026-04-22 14:56 | -5.15900 | 109.50096 | 35851 ft | 467 kts | 253° |
| 2026-04-22 14:57 | -5.17793 | 109.43888 | 35851 ft | 466 kts | 253° |
| 2026-04-22 14:57 | -5.19696 | 109.37645 | 35850 ft | 466 kts | 253° |
| 2026-04-22 14:58 | -5.21587 | 109.31438 | 35850 ft | 467 kts | 253° |
| 2026-04-22 14:58 | -5.23475 | 109.25240 | 35854 ft | 466 kts | 253° |
| 2026-04-22 14:59 | -5.25365 | 109.19029 | 35856 ft | 466 kts | 253° |
| 2026-04-22 14:59 | -5.27246 | 109.12843 | 35857 ft | 466 kts | 252° |
| 2026-04-22 15:00 | -5.29141 | 109.06615 | 35855 ft | 466 kts | 252° |
| 2026-04-22 15:00 | -5.31100 | 109.00449 | 35854 ft | 465 kts | 251° |
| 2026-04-22 15:01 | -5.33149 | 108.94315 | 35854 ft | 465 kts | 251° |
| 2026-04-22 15:01 | -5.35185 | 108.88191 | 35854 ft | 465 kts | 251° |
| 2026-04-22 15:02 | -5.37224 | 108.82028 | 35855 ft | 466 kts | 251° |
| 2026-04-22 15:02 | -5.39251 | 108.75890 | 35860 ft | 465 kts | 251° |
| 2026-04-22 15:03 | -5.41280 | 108.69743 | 35867 ft | 464 kts | 251° |
| 2026-04-22 15:03 | -5.43308 | 108.63596 | 35868 ft | 464 kts | 251° |
| 2026-04-22 15:04 | -5.45323 | 108.57494 | 35569 ft | 458 kts | 251° |
| 2026-04-22 15:04 | -5.46324 | 108.54456 | 34905 ft | 457 kts | 252° |
| 2026-04-22 15:04 | -5.47316 | 108.51444 | 34184 ft | 456 kts | 252° |
| 2026-04-22 15:05 | -5.48300 | 108.48456 | 33444 ft | 456 kts | 252° |
| 2026-04-22 15:05 | -5.49295 | 108.45436 | 32640 ft | 457 kts | 252° |
| 2026-04-22 15:05 | -5.50282 | 108.42439 | 32097 ft | 453 kts | 252° |
| 2026-04-22 15:05 | -5.51262 | 108.39462 | 31597 ft | 449 kts | 252° |
| 2026-04-22 15:06 | -5.52236 | 108.36502 | 31072 ft | 445 kts | 252° |
| 2026-04-22 15:06 | -5.53204 | 108.33560 | 30528 ft | 442 kts | 252° |
| 2026-04-22 15:06 | -5.54167 | 108.30652 | 29984 ft | 439 kts | 250° |
| 2026-04-22 15:06 | -5.55474 | 108.27882 | 29453 ft | 436 kts | 237° |
| 2026-04-22 15:07 | -5.57294 | 108.25512 | 29083 ft | 433 kts | 225° |
| 2026-04-22 15:07 | -5.59591 | 108.23532 | 28707 ft | 431 kts | 214° |
| 2026-04-22 15:07 | -5.62039 | 108.21841 | 28343 ft | 429 kts | 213° |
| 2026-04-22 15:07 | -5.64525 | 108.20180 | 27974 ft | 426 kts | 213° |
| 2026-04-22 15:08 | -5.67000 | 108.18524 | 27603 ft | 423 kts | 213° |
| 2026-04-22 15:08 | -5.69417 | 108.16894 | 27239 ft | 420 kts | 213° |
| 2026-04-22 15:08 | -5.71826 | 108.15260 | 26873 ft | 417 kts | 213° |
| 2026-04-22 15:08 | -5.74234 | 108.13618 | 26504 ft | 414 kts | 213° |
| 2026-04-22 15:09 | -5.76621 | 108.11986 | 26133 ft | 411 kts | 214° |
| 2026-04-22 15:09 | -5.78986 | 108.10367 | 25765 ft | 409 kts | 214° |
| 2026-04-22 15:09 | -5.81318 | 108.08770 | 25399 ft | 406 kts | 214° |
| 2026-04-22 15:09 | -5.83668 | 108.07159 | 25028 ft | 404 kts | 214° |
| 2026-04-22 15:10 | -5.85984 | 108.05572 | 24661 ft | 401 kts | 214° |
| 2026-04-22 15:10 | -5.88258 | 108.04012 | 24294 ft | 395 kts | 214° |
| 2026-04-22 15:10 | -5.90535 | 108.02451 | 23930 ft | 394 kts | 214° |
| 2026-04-22 15:10 | -5.92799 | 108.00899 | 23566 ft | 394 kts | 214° |
| 2026-04-22 15:11 | -5.94993 | 107.99270 | 23191 ft | 391 kts | 225° |
| 2026-04-22 15:11 | -5.96524 | 107.97063 | 22818 ft | 387 kts | 249° |
| 2026-04-22 15:11 | -5.97023 | 107.94442 | 22433 ft | 381 kts | 272° |
| 2026-04-22 15:11 | -5.96806 | 107.91828 | 22018 ft | 377 kts | 277° |
| 2026-04-22 15:12 | -5.96539 | 107.89213 | 21540 ft | 375 kts | 275° |
| 2026-04-22 15:12 | -5.96362 | 107.86636 | 21076 ft | 374 kts | 273° |
| 2026-04-22 15:12 | -5.96261 | 107.84022 | 20612 ft | 372 kts | 272° |
| 2026-04-22 15:12 | -5.96210 | 107.81441 | 20158 ft | 369 kts | 271° |
| 2026-04-22 15:13 | -5.96187 | 107.78879 | 19670 ft | 367 kts | 271° |
| 2026-04-22 15:13 | -5.96179 | 107.76352 | 19208 ft | 365 kts | 271° |
| 2026-04-22 15:13 | -5.96176 | 107.73806 | 18753 ft | 363 kts | 271° |
| 2026-04-22 15:13 | -5.96174 | 107.71305 | 18394 ft | 357 kts | 271° |
| 2026-04-22 15:14 | -5.96171 | 107.68833 | 18216 ft | 345 kts | 271° |
| 2026-04-22 15:14 | -5.96169 | 107.66473 | 17934 ft | 339 kts | 271° |
| 2026-04-22 15:14 | -5.96168 | 107.64107 | 17526 ft | 338 kts | 271° |
| 2026-04-22 15:14 | -5.96167 | 107.61766 | 17102 ft | 335 kts | 271° |
| 2026-04-22 15:15 | -5.96166 | 107.59444 | 16667 ft | 335 kts | 271° |
| 2026-04-22 15:15 | -5.96164 | 107.57104 | 16306 ft | 331 kts | 271° |
| 2026-04-22 15:15 | -5.96164 | 107.54793 | 15943 ft | 329 kts | 271° |
| 2026-04-22 15:15 | -5.96164 | 107.52510 | 15584 ft | 326 kts | 271° |
| 2026-04-22 15:16 | -5.96165 | 107.50274 | 15222 ft | 324 kts | 271° |
| 2026-04-22 15:16 | -5.96164 | 107.48000 | 14867 ft | 322 kts | 271° |
| 2026-04-22 15:16 | -5.96165 | 107.45772 | 14512 ft | 319 kts | 271° |
| 2026-04-22 15:16 | -5.96166 | 107.43546 | 14154 ft | 317 kts | 271° |
| 2026-04-22 15:17 | -5.96167 | 107.41364 | 13870 ft | 310 kts | 271° |
| 2026-04-22 15:17 | -5.96166 | 107.39237 | 13642 ft | 296 kts | 271° |
| 2026-04-22 15:17 | -5.96168 | 107.37229 | 13322 ft | 286 kts | 271° |
| 2026-04-22 15:17 | -5.96167 | 107.35228 | 12839 ft | 283 kts | 271° |
| 2026-04-22 15:18 | -5.96168 | 107.33271 | 12317 ft | 281 kts | 271° |
| 2026-04-22 15:18 | -5.96165 | 107.31325 | 11807 ft | 279 kts | 271° |
| 2026-04-22 15:18 | -5.96161 | 107.29382 | 11290 ft | 276 kts | 271° |
| 2026-04-22 15:18 | -5.96158 | 107.27469 | 10789 ft | 274 kts | 271° |
| 2026-04-22 15:19 | -5.96157 | 107.25575 | 10382 ft | 270 kts | 271° |
| 2026-04-22 15:19 | -5.96154 | 107.23732 | 10163 ft | 259 kts | 270° |
| 2026-04-22 15:19 | -5.96154 | 107.21965 | 9958 ft | 249 kts | 270° |
| 2026-04-22 15:19 | -5.96154 | 107.20250 | 9656 ft | 245 kts | 270° |
| 2026-04-22 15:20 | -5.96152 | 107.19107 | 9407 ft | 243 kts | 270° |
| 2026-04-22 15:20 | -5.96150 | 107.16853 | 8814 ft | 242 kts | 270° |
| 2026-04-22 15:20 | -5.96150 | 107.15190 | 8360 ft | 240 kts | 271° |
| 2026-04-22 15:20 | -5.96149 | 107.13524 | 7896 ft | 239 kts | 271° |
| 2026-04-22 15:21 | -5.96147 | 107.11846 | 7415 ft | 238 kts | 271° |
| 2026-04-22 15:21 | -5.96244 | 107.10192 | 7024 ft | 238 kts | 259° |
| 2026-04-22 15:21 | -5.96707 | 107.08608 | 6656 ft | 236 kts | 250° |
| 2026-04-22 15:21 | -5.97297 | 107.07095 | 6309 ft | 233 kts | 248° |
| 2026-04-22 15:22 | -5.97898 | 107.05598 | 5968 ft | 229 kts | 248° |
| 2026-04-22 15:22 | -5.98486 | 107.04127 | 5482 ft | 226 kts | 248° |
| 2026-04-22 15:22 | -5.99065 | 107.02666 | 4973 ft | 226 kts | 248° |
| 2026-04-22 15:22 | -5.99645 | 107.01189 | 4572 ft | 223 kts | 248° |
| 2026-04-22 15:23 | -6.00201 | 106.99767 | 4360 ft | 215 kts | 249° |
| 2026-04-22 15:23 | -6.00737 | 106.98388 | 4263 ft | 207 kts | 248° |
| 2026-04-22 15:23 | -6.01263 | 106.97047 | 4187 ft | 207 kts | 249° |
| 2026-04-22 15:23 | -6.01785 | 106.95710 | 4228 ft | 207 kts | 248° |
| 2026-04-22 15:24 | -6.02317 | 106.94355 | 4189 ft | 208 kts | 250° |
| 2026-04-22 15:24 | -6.02836 | 106.93006 | 4098 ft | 207 kts | 247° |
| 2026-04-22 15:24 | -6.03375 | 106.91663 | 4027 ft | 206 kts | 247° |
| 2026-04-22 15:24 | -6.03902 | 106.90324 | 4013 ft | 205 kts | 247° |
| 2026-04-22 15:25 | -6.04453 | 106.88979 | 4002 ft | 206 kts | 246° |
| 2026-04-22 15:25 | -6.04988 | 106.87650 | 3979 ft | 206 kts | 248° |
| 2026-04-22 15:25 | -6.05525 | 106.86304 | 3809 ft | 206 kts | 246° |
| 2026-04-22 15:25 | -6.06042 | 106.84982 | 3548 ft | 201 kts | 246° |
| 2026-04-22 15:26 | -6.06556 | 106.83685 | 3310 ft | 199 kts | 245° |
| 2026-04-22 15:26 | -6.07095 | 106.82401 | 3066 ft | 200 kts | 250° |
| 2026-04-22 15:26 | -6.07602 | 106.81090 | 2816 ft | 202 kts | 250° |
| 2026-04-22 15:26 | -6.08106 | 106.79775 | 2560 ft | 205 kts | 248° |
| 2026-04-22 15:27 | -6.08640 | 106.78441 | 2292 ft | 207 kts | 249° |
| 2026-04-22 15:27 | -6.09183 | 106.77093 | 2005 ft | 202 kts | 248° |
| 2026-04-22 15:27 | -6.09694 | 106.75816 | 1737 ft | 194 kts | 249° |
| 2026-04-22 15:27 | -6.10180 | 106.74591 | 1492 ft | 184 kts | 248° |
| 2026-04-22 15:28 | -6.10616 | 106.73478 | 1267 ft | 174 kts | 246° |
| 2026-04-22 15:28 | -6.11051 | 106.72388 | 1053 ft | 163 kts | 245° |
| 2026-04-22 15:28 | -6.11466 | 106.71370 | 853 ft | 153 kts | 248° |
| 2026-04-22 15:28 | -6.11851 | 106.70393 | 674 ft | 147 kts | 249° |
| 2026-04-22 15:29 | -6.12217 | 106.69467 | 478 ft | 141 kts | 246° |
| 2026-04-22 15:29 | -6.12587 | 106.68555 | 301 ft | 140 kts | 248° |
| 2026-04-22 15:29 | -6.12948 | 106.67642 | 141 ft | 139 kts | 248° |
| 2026-04-22 15:30 | -6.13565 | 106.66092 | 47 ft | 81 kts | 247° |
| 2026-04-22 15:30 | -6.13711 | 106.65726 | 47 ft | 34 kts | 249° |
| 2026-04-22 15:30 | -6.13756 | 106.65549 | 47 ft | 24 kts | 267° |
| 2026-04-22 15:30 | -6.13748 | 106.65408 | 47 ft | 16 kts | 281° |
| 2026-04-22 15:31 | -6.13699 | 106.65329 | 47 ft | 12 kts | 296° |
| 2026-04-22 15:31 | -6.13709 | 106.65250 | 47 ft | 12 kts | 248° |
| 2026-04-22 15:31 | -6.13742 | 106.65166 | 47 ft | 13 kts | 248° |
| 2026-04-22 15:31 | -6.13776 | 106.65079 | 47 ft | 14 kts | 249° |
| 2026-04-22 15:32 | -6.13794 | 106.65000 | 47 ft | 11 kts | 287° |
| 2026-04-22 15:32 | -6.13735 | 106.64953 | 47 ft | 12 kts | 339° |
| 2026-04-22 15:32 | -6.13652 | 106.64921 | 47 ft | 13 kts | 338° |
| 2026-04-22 15:32 | -6.13567 | 106.64887 | 47 ft | 14 kts | 338° |
| 2026-04-22 15:33 | -6.13481 | 106.64851 | 47 ft | 14 kts | 338° |
| 2026-04-22 15:33 | -6.13386 | 106.64814 | 47 ft | 15 kts | 338° |
| 2026-04-22 15:33 | -6.13285 | 106.64774 | 47 ft | 15 kts | 339° |
| 2026-04-22 15:33 | -6.13180 | 106.64732 | 47 ft | 16 kts | 337° |
| 2026-04-22 15:34 | -6.13084 | 106.64693 | 54 ft | 13 kts | 337° |
| 2026-04-22 15:34 | -6.12976 | 106.64650 | 67 ft | 17 kts | 338° |
| 2026-04-22 15:34 | -6.12842 | 106.64597 | 53 ft | 25 kts | 339° |
| 2026-04-22 15:34 | -6.12665 | 106.64527 | 47 ft | 26 kts | 338° |
| 2026-04-22 15:35 | -6.12554 | 106.64480 | 47 ft | 25 kts | 336° |
| 2026-04-22 15:35 | -6.12338 | 106.64396 | 47 ft | 24 kts | 339° |
| 2026-04-22 15:35 | -6.12186 | 106.64336 | 47 ft | 18 kts | 341° |
| 2026-04-22 15:35 | -6.12111 | 106.64342 | 47 ft | 9 kts | 62° |
| 2026-04-22 15:36 | -6.12086 | 106.64407 | 47 ft | 10 kts | 70° |
| 2026-04-22 15:36 | -6.12061 | 106.64472 | 47 ft | 9 kts | 69° |
| 2026-04-22 15:36 | -6.12036 | 106.64537 | 47 ft | 9 kts | 68° |
| 2026-04-22 15:36 | -6.12010 | 106.64600 | 47 ft | 9 kts | 68° |
| 2026-04-22 15:37 | -6.11985 | 106.64663 | 47 ft | 9 kts | 69° |
| 2026-04-22 15:37 | -6.11961 | 106.64728 | 47 ft | 9 kts | 63° |
| 2026-04-22 15:37 | -6.11936 | 106.64788 | 47 ft | 9 kts | 68° |
| 2026-04-22 15:37 | -6.11911 | 106.64849 | 47 ft | 9 kts | 69° |
| 2026-04-22 15:38 | -6.11886 | 106.64910 | 47 ft | 9 kts | 68° |
| 2026-04-22 15:38 | -6.11838 | 106.65031 | 47 ft | 9 kts | 69° |
| 2026-04-22 15:38 | -6.11815 | 106.65093 | 47 ft | 9 kts | 68° |
| 2026-04-22 15:39 | -6.11789 | 106.65157 | 47 ft | 10 kts | 68° |
| 2026-04-22 15:39 | -6.11759 | 106.65233 | 47 ft | 12 kts | 68° |
| 2026-04-22 15:39 | -6.11724 | 106.65319 | 47 ft | 13 kts | 69° |
| 2026-04-22 15:39 | -6.11687 | 106.65411 | 47 ft | 14 kts | 67° |
| 2026-04-22 15:40 | -6.11649 | 106.65507 | 47 ft | 14 kts | 68° |
| 2026-04-22 15:40 | -6.11612 | 106.65602 | 47 ft | 14 kts | 68° |
| 2026-04-22 15:40 | -6.11576 | 106.65692 | 47 ft | 13 kts | 68° |
| 2026-04-22 15:40 | -6.11541 | 106.65778 | 47 ft | 13 kts | 69° |
| 2026-04-22 15:41 | -6.11508 | 106.65862 | 47 ft | 12 kts | 68° |
| 2026-04-22 15:41 | -6.11477 | 106.65942 | 47 ft | 12 kts | 69° |
| 2026-04-22 15:41 | -6.11443 | 106.66027 | 47 ft | 14 kts | 68° |
| 2026-04-22 15:41 | -6.11399 | 106.66133 | 47 ft | 16 kts | 70° |
| 2026-04-22 15:42 | -6.11358 | 106.66238 | 47 ft | 15 kts | 69° |
| 2026-04-22 15:42 | -6.11318 | 106.66338 | 47 ft | 15 kts | 68° |
| 2026-04-22 15:42 | -6.11280 | 106.66434 | 47 ft | 14 kts | 68° |
| 2026-04-22 15:42 | -6.11244 | 106.66525 | 47 ft | 13 kts | 68° |
| 2026-04-22 15:43 | -6.11209 | 106.66613 | 47 ft | 13 kts | 69° |
| 2026-04-22 15:43 | -6.11175 | 106.66699 | 47 ft | 12 kts | 68° |
| 2026-04-22 15:43 | -6.11143 | 106.66782 | 47 ft | 12 kts | 68° |
| 2026-04-22 15:43 | -6.11111 | 106.66860 | 47 ft | 12 kts | 68° |
| 2026-04-22 15:44 | -6.11080 | 106.66938 | 47 ft | 11 kts | 69° |
| 2026-04-22 15:44 | -6.11054 | 106.67017 | 47 ft | 11 kts | 75° |
| 2026-04-22 15:44 | -6.11035 | 106.67094 | 47 ft | 11 kts | 77° |
| 2026-04-22 15:44 | -6.11019 | 106.67172 | 47 ft | 11 kts | 77° |
| 2026-04-22 15:45 | -6.11000 | 106.67247 | 47 ft | 11 kts | 76° |
| 2026-04-22 15:45 | -6.10995 | 106.67322 | 47 ft | 10 kts | 99° |
| 2026-04-22 15:45 | -6.11022 | 106.67391 | 47 ft | 10 kts | 123° |
| 2026-04-22 15:45 | -6.11073 | 106.67444 | 47 ft | 10 kts | 146° |
| 2026-04-22 15:46 | -6.11140 | 106.67461 | 47 ft | 10 kts | 197° |
| 2026-04-22 15:46 | -6.11177 | 106.67413 | 47 ft | 10 kts | 247° |
| 2026-04-22 15:46 | -6.11199 | 106.67358 | 47 ft | 10 kts | 249° |
| 2026-04-22 15:46 | -6.11224 | 106.67297 | 47 ft | 10 kts | 247° |
| 2026-04-22 15:47 | -6.11244 | 106.67248 | 47 ft | 10 kts | 246° |
| 2026-04-22 15:47 | -6.11273 | 106.67207 | 47 ft | 9 kts | 207° |
| 2026-04-22 15:47 | -6.11334 | 106.67214 | 47 ft | 9 kts | 162° |
| 2026-04-22 15:47 | -6.11378 | 106.67210 | 47 ft | 7 kts | 235° |
| 2026-04-22 15:48 | -6.11392 | 106.67175 | 47 ft | 4 kts | 248° |
| 2026-04-22 15:48 | -6.11398 | 106.67161 | 47 ft | 0 kts | 248° |